Time;durP1;ratioP1;P1;durP2;ratioP2;P2;SDS_P1;SDS_P2;PMS_P1;PMS_P2;Temp;Humidity;BMP_temperature;BMP_pressure;BME280_temperature;BME280_humidity;BME280_pressure;Samples;Min_cycle;Max_cycle;Signal;HPM_P1;HPM_P2
2021/01/08 00:01:40;;;;;;;16.05;7.25;;;2.10;97.20;;;;;;5027915;28;20481;-75
2021/01/08 00:04:06;;;;;;;12.38;7.18;;;2.20;97.20;;;;;;5028893;28;20034;-75
2021/01/08 00:06:32;;;;;;;11.00;6.43;;;2.20;97.10;;;;;;5028675;28;20034;-74
2021/01/08 00:08:58;;;;;;;10.40;6.03;;;2.20;97.10;;;;;;5012726;28;20036;-75
2021/01/08 00:11:24;;;;;;;11.68;6.72;;;2.20;97.00;;;;;;5029175;28;20432;-74
2021/01/08 00:13:50;;;;;;;10.77;6.03;;;2.20;97.00;;;;;;5027387;28;20338;-74
2021/01/08 00:16:16;;;;;;;13.55;6.55;;;2.20;96.90;;;;;;5031138;28;20021;-75
2021/01/08 00:18:44;;;;;;;11.93;6.43;;;2.20;96.80;;;;;;5027078;28;20072;-75
2021/01/08 00:21:10;;;;;;;10.30;5.85;;;2.20;96.90;;;;;;5028641;28;20025;-74
2021/01/08 00:23:36;;;;;;;11.98;6.90;;;2.10;96.90;;;;;;5030214;28;20022;-74
2021/01/08 00:26:01;;;;;;;11.57;6.72;;;2.10;96.90;;;;;;5030202;28;20109;-74
2021/01/08 00:28:27;;;;;;;12.55;7.00;;;2.10;97.00;;;;;;5028699;28;20393;-74
2021/01/08 00:30:53;;;;;;;11.32;6.22;;;2.10;97.00;;;;;;5029754;28;20041;-74
2021/01/08 00:33:18;;;;;;;10.40;6.10;;;2.10;97.10;;;;;;5027632;28;20032;-74
2021/01/08 00:35:44;;;;;;;13.32;6.97;;;2.10;97.10;;;;;;5030237;28;20026;-74
2021/01/08 00:38:10;;;;;;;11.88;6.78;;;2.10;97.10;;;;;;5029272;28;20028;-74
2021/01/08 00:40:36;;;;;;;13.32;7.15;;;2.10;97.20;;;;;;5030922;28;20372;-74
2021/01/08 00:43:02;;;;;;;12.73;7.22;;;2.10;97.20;;;;;;5028938;28;20116;-74
2021/01/08 00:45:28;;;;;;;14.90;7.47;;;2.00;97.10;;;;;;5029548;28;20368;-74
2021/01/08 00:47:54;;;;;;;12.00;6.55;;;2.00;97.20;;;;;;5026262;28;20033;-74
2021/01/08 00:50:20;;;;;;;12.75;7.05;;;2.10;97.20;;;;;;5028811;28;20032;-74
2021/01/08 00:52:45;;;;;;;11.25;6.72;;;2.00;97.10;;;;;;5030449;28;20513;-74
2021/01/08 00:55:12;;;;;;;11.32;5.82;;;2.00;97.10;;;;;;5029425;28;20032;-74
2021/01/08 00:57:37;;;;;;;10.75;6.38;;;2.00;97.00;;;;;;5029566;28;20083;-75
2021/01/08 01:00:05;;;;;;;13.35;7.10;;;2.00;97.10;;;;;;5029177;28;20444;-74
2021/01/08 01:02:32;;;;;;;14.68;7.25;;;2.00;97.20;;;;;;5027896;28;20372;-74
2021/01/08 01:04:58;;;;;;;13.52;7.13;;;2.00;97.30;;;;;;5027712;28;20035;-74
2021/01/08 01:07:24;;;;;;;10.43;6.32;;;2.00;97.30;;;;;;5029328;28;20026;-74
2021/01/08 01:09:49;;;;;;;13.38;7.40;;;1.90;97.30;;;;;;5028509;28;20505;-74
2021/01/08 01:12:15;;;;;;;13.50;7.57;;;1.90;97.40;;;;;;5027858;28;20437;-74
2021/01/08 01:14:41;;;;;;;11.27;6.20;;;1.90;97.40;;;;;;5011779;28;20136;-73
2021/01/08 01:17:06;;;;;;;13.30;6.93;;;1.90;97.40;;;;;;5030146;28;20504;-73
2021/01/08 01:19:32;;;;;;;13.10;7.25;;;1.90;97.50;;;;;;5027047;28;20507;-74
2021/01/08 01:21:58;;;;;;;13.18;7.03;;;1.90;97.50;;;;;;5028023;28;20029;-74
2021/01/08 01:24:24;;;;;;;11.82;6.47;;;1.90;97.40;;;;;;5029249;28;20082;-74
2021/01/08 01:27:00;;;;;;;11.13;5.75;;;1.90;97.50;;;;;;5028897;28;20040;-74
2021/01/08 01:29:28;;;;;;;10.07;6.00;;;1.90;97.60;;;;;;5029767;28;20037;-74
2021/01/08 01:31:54;;;;;;;11.93;5.35;;;1.90;97.50;;;;;;5027792;28;20061;-73
2021/01/08 01:34:19;;;;;;;9.13;5.13;;;1.90;97.50;;;;;;5028807;28;20069;-74
2021/01/08 01:36:45;;;;;;;11.38;5.97;;;1.90;97.60;;;;;;5011216;28;20124;-75
2021/01/08 01:39:14;;;;;;;10.05;5.47;;;1.90;97.50;;;;;;5026916;28;20444;-75
2021/01/08 01:41:41;;;;;;;9.98;5.47;;;1.90;97.50;;;;;;5028732;28;20428;-75
2021/01/08 01:44:07;;;;;;;12.10;6.43;;;1.90;97.40;;;;;;5028759;28;20086;-74
2021/01/08 01:46:33;;;;;;;9.73;5.75;;;1.90;97.40;;;;;;5027709;28;20022;-74
2021/01/08 01:48:59;;;;;;;12.32;5.47;;;1.90;97.50;;;;;;5029135;28;20057;-74
2021/01/08 01:51:25;;;;;;;8.18;5.20;;;1.90;97.50;;;;;;5009940;28;20080;-74
2021/01/08 01:53:52;;;;;;;11.48;6.15;;;1.90;97.50;;;;;;5025950;28;20033;-75
2021/01/08 01:56:18;;;;;;;10.30;5.55;;;1.90;97.70;;;;;;5035520;22;20344;-76
2021/01/08 01:58:43;;;;;;;10.70;5.45;;;1.90;97.60;;;;;;5034995;28;20153;-75
2021/01/08 02:01:12;;;;;;;8.93;4.95;;;1.90;97.60;;;;;;5037810;28;20036;-75
2021/01/08 02:03:49;;;;;;;10.68;5.47;;;1.90;97.50;;;;;;5019179;28;20110;-76
2021/01/08 02:06:19;;;;;;;13.43;6.57;;;1.90;97.40;;;;;;5022838;28;20022;-76
2021/01/08 02:08:53;;;;;;;11.25;5.78;;;1.90;97.50;;;;;;5036894;28;20047;-74
2021/01/08 02:11:24;;;;;;;13.90;6.68;;;1.90;97.60;;;;;;5033940;28;20022;-75
2021/01/08 02:13:59;;;;;;;14.65;6.60;;;1.90;97.60;;;;;;5035516;28;20113;-75
2021/01/08 02:16:28;;;;;;;11.52;6.10;;;1.80;97.60;;;;;;5037904;28;20017;-75
2021/01/08 02:18:55;;;;;;;9.35;5.40;;;1.80;97.70;;;;;;5035839;28;20078;-76
2021/01/08 02:21:25;;;;;;;12.75;6.07;;;1.80;97.60;;;;;;5038365;28;20033;-75
2021/01/08 02:24:01;;;;;;;12.85;6.38;;;1.80;97.60;;;;;;5042832;28;20017;-75
2021/01/08 02:26:28;;;;;;;12.65;6.30;;;1.80;97.70;;;;;;5036461;28;20252;-75
2021/01/08 02:28:54;;;;;;;13.68;6.82;;;1.80;97.60;;;;;;5038041;28;20029;-74
2021/01/08 02:31:20;;;;;;;14.40;6.82;;;1.80;97.60;;;;;;5036048;28;20048;-75
2021/01/08 02:33:46;;;;;;;14.80;6.47;;;1.80;97.60;;;;;;5039513;28;20397;-74
2021/01/08 02:36:12;;;;;;;13.15;6.97;;;1.80;97.70;;;;;;5035292;28;20025;-76
2021/01/08 02:38:39;;;;;;;14.13;7.35;;;1.80;97.70;;;;;;5037018;28;20075;-75
2021/01/08 02:41:07;;;;;;;15.60;7.68;;;1.80;97.70;;;;;;5034440;28;20024;-75
2021/01/08 02:43:34;;;;;;;16.23;7.32;;;1.80;97.60;;;;;;5032688;28;20025;-76
2021/01/08 02:46:00;;;;;;;16.95;7.70;;;1.70;97.60;;;;;;5018588;28;20090;-75
2021/01/08 02:48:26;;;;;;;16.27;6.88;;;1.70;97.70;;;;;;5015978;28;20029;-75
2021/01/08 02:50:52;;;;;;;15.60;7.85;;;1.70;97.60;;;;;;5036852;28;20029;-75
2021/01/08 02:53:21;;;;;;;19.05;8.15;;;1.70;97.60;;;;;;5036394;28;20754;-75
2021/01/08 02:56:11;;;;;;;17.92;7.88;;;1.70;97.70;;;;;;5017580;28;20477;-76
2021/01/08 02:58:40;;;;;;;17.33;8.07;;;1.70;97.80;;;;;;5033027;28;20040;-76
2021/01/08 03:01:07;;;;;;;19.70;8.02;;;1.70;97.80;;;;;;5035670;28;20025;-75
2021/01/08 03:03:33;;;;;;;18.23;7.30;;;1.70;97.90;;;;;;5036102;28;20439;-76
2021/01/08 03:06:00;;;;;;;19.17;7.43;;;1.70;97.90;;;;;;5017606;28;20057;-76
2021/01/08 03:08:31;;;;;;;17.25;7.97;;;1.80;97.90;;;;;;5038794;28;20034;-75
2021/01/08 03:10:57;;;;;;;18.65;7.85;;;1.70;97.80;;;;;;5038185;28;20313;-75
2021/01/08 03:13:24;;;;;;;14.57;7.68;;;1.70;97.80;;;;;;5036074;28;20033;-75
2021/01/08 03:15:50;;;;;;;18.30;7.78;;;1.80;97.80;;;;;;5033601;28;20339;-75
2021/01/08 03:18:16;;;;;;;16.38;7.80;;;1.80;97.70;;;;;;5038129;28;20478;-76
2021/01/08 03:20:42;;;;;;;18.35;8.77;;;1.80;97.70;;;;;;5018931;28;20033;-75
2021/01/08 03:23:08;;;;;;;13.38;7.45;;;1.80;97.90;;;;;;5018183;28;20029;-75
2021/01/08 03:25:34;;;;;;;20.30;8.52;;;1.80;97.70;;;;;;5038607;28;20108;-75
2021/01/08 03:27:59;;;;;;;17.27;8.25;;;1.80;97.70;;;;;;5018898;28;20135;-75
2021/01/08 03:30:25;;;;;;;15.88;7.72;;;1.80;97.70;;;;;;5035706;28;20489;-76
2021/01/08 03:32:51;;;;;;;21.73;8.88;;;1.80;97.70;;;;;;5033716;28;20034;-77
2021/01/08 03:35:17;;;;;;;23.70;8.18;;;1.80;97.70;;;;;;5036475;28;20025;-75
2021/01/08 03:37:46;;;;;;;18.13;7.82;;;1.70;97.70;;;;;;5018456;28;20107;-76
2021/01/08 03:40:12;;;;;;;19.08;8.43;;;1.80;97.80;;;;;;5016452;28;20415;-76
2021/01/08 03:42:38;;;;;;;16.95;8.25;;;1.70;97.70;;;;;;5017754;28;20489;-76
2021/01/08 03:45:05;;;;;;;16.20;7.85;;;1.70;97.60;;;;;;5032503;28;20087;-75
2021/01/08 03:47:31;;;;;;;18.10;7.18;;;1.70;97.70;;;;;;5034109;28;20037;-75
2021/01/08 03:49:56;;;;;;;17.42;8.10;;;1.70;97.70;;;;;;5035547;28;20029;-75
2021/01/08 03:52:22;;;;;;;16.70;6.90;;;1.70;97.70;;;;;;5020001;28;20034;-75
2021/01/08 03:54:48;;;;;;;22.52;8.93;;;1.60;97.70;;;;;;5037366;28;20033;-75
2021/01/08 03:57:16;;;;;;;16.70;7.22;;;1.60;97.70;;;;;;5038004;28;20033;-75
2021/01/08 03:59:42;;;;;;;21.95;8.73;;;1.60;97.70;;;;;;5017062;28;20526;-76
2021/01/08 04:02:07;;;;;;;16.63;7.43;;;1.60;97.80;;;;;;5033155;28;20021;-75
2021/01/08 04:04:33;;;;;;;18.45;8.48;;;1.60;98.00;;;;;;5017844;28;20032;-76
2021/01/08 04:06:59;;;;;;;20.40;8.45;;;1.70;97.80;;;;;;5020553;28;20021;-75
2021/01/08 04:09:24;;;;;;;15.98;6.82;;;1.70;97.80;;;;;;5022216;28;20236;-77
2021/01/08 04:11:50;;;;;;;19.30;7.78;;;1.70;97.80;;;;;;5021689;28;20087;-76
2021/01/08 04:14:16;;;;;;;16.63;7.40;;;1.70;97.70;;;;;;5039681;28;20029;-75
2021/01/08 04:16:42;;;;;;;20.98;8.20;;;1.70;97.80;;;;;;5024146;28;20055;-76
2021/01/08 04:19:09;;;;;;;20.67;7.97;;;1.70;97.70;;;;;;5038975;28;20040;-75
2021/01/08 04:21:34;;;;;;;21.10;9.20;;;1.70;97.60;;;;;;5036656;28;20018;-75
2021/01/08 04:24:04;;;;;;;20.02;8.77;;;1.70;97.60;;;;;;5040334;28;20150;-75
2021/01/08 04:26:30;;;;;;;21.52;8.80;;;1.70;97.60;;;;;;5037291;28;20484;-75
2021/01/08 04:28:56;;;;;;;25.13;8.65;;;1.70;97.90;;;;;;5038100;28;20047;-75
2021/01/08 04:31:22;;;;;;;24.73;9.63;;;1.70;97.60;;;;;;5038223;28;20038;-75
2021/01/08 04:33:48;;;;;;;22.55;8.77;;;1.70;97.60;;;;;;5019234;28;20427;-76
2021/01/08 04:36:14;;;;;;;20.48;9.05;;;1.80;97.60;;;;;;5043392;28;20029;-76
2021/01/08 04:38:40;;;;;;;22.80;8.85;;;1.70;97.50;;;;;;5038928;28;20667;-75
2021/01/08 04:41:07;;;;;;;21.10;9.00;;;1.70;97.60;;;;;;5037816;28;20551;-75
2021/01/08 04:43:34;;;;;;;26.27;10.02;;;1.70;97.50;;;;;;5022833;28;20033;-75
2021/01/08 04:46:12;;;;;;;18.02;9.02;;;1.80;97.50;;;;;;5035956;28;20032;-75
2021/01/08 04:48:38;;;;;;;22.40;9.23;;;1.70;97.50;;;;;;5035931;28;20387;-75
2021/01/08 04:51:05;;;;;;;32.92;10.30;;;1.70;97.50;;;;;;5036074;28;20021;-75
2021/01/08 04:53:32;;;;;;;20.13;8.70;;;1.70;97.60;;;;;;5024277;28;20047;-75
2021/01/08 04:56:06;;;;;;;24.98;10.27;;;1.70;97.60;;;;;;5024949;28;20048;-74
2021/01/08 04:58:32;;;;;;;22.90;9.80;;;1.70;97.50;;;;;;5038949;28;20029;-75
2021/01/08 05:01:00;;;;;;;29.15;9.82;;;1.70;97.60;;;;;;5016334;28;20519;-75
2021/01/08 05:03:27;;;;;;;30.30;11.43;;;1.70;97.60;;;;;;5038870;28;20100;-77
2021/01/08 05:05:53;;;;;;;24.67;10.30;;;1.70;97.60;;;;;;5019941;28;20482;-77
2021/01/08 05:08:18;;;;;;;25.42;10.30;;;1.70;97.60;;;;;;5036430;28;20172;-75
2021/01/08 05:10:45;;;;;;;31.00;11.23;;;1.70;97.60;;;;;;5020690;28;20218;-76
2021/01/08 05:13:11;;;;;;;24.73;9.95;;;1.60;97.60;;;;;;5035272;28;20113;-76
2021/01/08 05:15:38;;;;;;;24.27;9.38;;;1.60;97.70;;;;;;5038893;28;20039;-77
2021/01/08 05:18:04;;;;;;;28.25;11.18;;;1.60;97.70;;;;;;5019505;28;20029;-76
2021/01/08 05:20:30;;;;;;;27.77;11.10;;;1.70;97.70;;;;;;5020282;28;20404;-76
2021/01/08 05:22:57;;;;;;;23.33;10.05;;;1.60;97.60;;;;;;5035089;28;20033;-76
2021/01/08 05:25:23;;;;;;;22.38;9.18;;;1.70;97.60;;;;;;5038428;28;20021;-77
2021/01/08 05:27:50;;;;;;;32.28;10.70;;;1.60;97.60;;;;;;5038047;28;20052;-76
2021/01/08 05:30:24;;;;;;;29.88;11.48;;;1.60;97.60;;;;;;5037355;28;20025;-77
2021/01/08 05:32:58;;;;;;;25.95;10.00;;;1.60;97.60;;;;;;5035584;28;20107;-76
2021/01/08 05:35:24;;;;;;;22.77;9.15;;;1.60;97.70;;;;;;5019983;28;20036;-77
2021/01/08 05:37:53;;;;;;;24.77;9.95;;;1.60;97.60;;;;;;5016741;28;20026;-76
2021/01/08 05:40:25;;;;;;;26.88;10.65;;;1.60;97.60;;;;;;5037405;28;20033;-76
2021/01/08 05:42:54;;;;;;;26.67;11.18;;;1.60;97.60;;;;;;5037242;28;20040;-76
2021/01/08 05:45:20;;;;;;;30.52;10.38;;;1.60;97.60;;;;;;5037518;28;20033;-76
2021/01/08 05:47:48;;;;;;;30.67;10.43;;;1.60;97.70;;;;;;5035649;28;20029;-76
2021/01/08 05:50:16;;;;;;;31.15;12.10;;;1.70;97.70;;;;;;5036074;28;20079;-76
2021/01/08 05:52:44;;;;;;;31.25;11.45;;;1.70;97.70;;;;;;5021048;28;20550;-76
2021/01/08 05:55:13;;;;;;;28.30;11.73;;;1.70;97.60;;;;;;5032932;28;20526;-76
2021/01/08 05:57:41;;;;;;;30.88;12.48;;;1.70;97.60;;;;;;5037564;28;20055;-76
2021/01/08 06:00:08;;;;;;;29.63;11.23;;;1.70;97.50;;;;;;5038348;28;20045;-76
2021/01/08 06:02:37;;;;;;;29.65;10.55;;;1.70;97.60;;;;;;5034264;28;20507;-76
2021/01/08 06:05:07;;;;;;;32.53;11.73;;;1.70;97.60;;;;;;5037691;28;20044;-76
2021/01/08 06:07:38;;;;;;;38.08;12.00;;;1.70;97.60;;;;;;5037873;28;20079;-76
2021/01/08 06:10:06;;;;;;;27.90;11.45;;;1.70;97.60;;;;;;5036413;28;20063;-77
2021/01/08 06:12:39;;;;;;;34.85;12.43;;;1.70;97.60;;;;;;5038962;28;20061;-76
2021/01/08 06:15:10;;;;;;;30.48;12.10;;;1.70;97.60;;;;;;5038374;28;20034;-75
2021/01/08 06:17:37;;;;;;;28.20;11.00;;;1.70;97.60;;;;;;5018238;28;20032;-76
2021/01/08 06:20:06;;;;;;;31.88;11.05;;;1.70;97.50;;;;;;5034157;28;20527;-76
2021/01/08 06:22:39;;;;;;;29.90;12.70;;;1.70;97.50;;;;;;5036312;28;20061;-76
2021/01/08 06:25:06;;;;;;;31.50;11.60;;;1.80;97.50;;;;;;5035312;28;20383;-76
2021/01/08 06:27:34;;;;;;;27.48;10.85;;;1.80;97.50;;;;;;5036033;28;20060;-77
2021/01/08 06:30:02;;;;;;;29.40;11.98;;;1.80;97.50;;;;;;5034084;28;20026;-76
2021/01/08 06:32:30;;;;;;;30.15;11.45;;;1.80;97.50;;;;;;5051556;28;20189;-76
2021/01/08 06:35:05;;;;;;;26.35;11.43;;;1.80;97.50;;;;;;5036468;28;20032;-76
2021/01/08 06:37:40;;;;;;;31.83;10.73;;;1.80;97.50;;;;;;5035347;28;20033;-76
2021/01/08 06:40:10;;;;;;;29.67;12.63;;;1.80;97.50;;;;;;5035304;28;20029;-76
2021/01/08 06:42:44;;;;;;;26.17;11.13;;;1.80;97.50;;;;;;5029699;28;20033;-76
2021/01/08 06:45:15;;;;;;;25.70;11.05;;;1.80;97.50;;;;;;5016153;28;20095;-76
2021/01/08 06:47:46;;;;;;;36.33;13.95;;;1.80;97.40;;;;;;5016734;28;20064;-76
2021/01/08 06:50:20;;;;;;;34.78;12.70;;;1.80;97.40;;;;;;5037355;28;20427;-76
2021/01/08 06:52:49;;;;;;;32.05;12.70;;;1.80;97.30;;;;;;5038770;28;20026;-76
2021/01/08 06:55:19;;;;;;;29.80;12.50;;;1.80;97.30;;;;;;5031799;28;20118;-76
2021/01/08 06:57:53;;;;;;;32.00;12.30;;;1.80;97.50;;;;;;5038029;28;20136;-76
2021/01/08 07:00:29;;;;;;;25.80;11.48;;;1.80;97.40;;;;;;5018973;28;20112;-76
2021/01/08 07:03:01;;;;;;;32.35;13.10;;;1.80;97.40;;;;;;5036809;28;20128;-76
2021/01/08 07:05:26;;;;;;;32.60;13.38;;;1.90;97.50;;;;;;5035138;28;20034;-76
2021/01/08 07:07:55;;;;;;;37.25;13.10;;;1.80;97.50;;;;;;5033454;28;20364;-76
2021/01/08 07:10:21;;;;;;;33.40;13.65;;;1.80;97.50;;;;;;5034357;28;20029;-76
2021/01/08 07:12:52;;;;;;;35.17;13.77;;;1.90;97.50;;;;;;5034345;28;20427;-76
2021/01/08 07:15:18;;;;;;;;;;;1.90;97.50;;;;;;5035183;28;20505;-76
2021/01/08 07:17:43;;;;;;;36.97;13.65;;;1.90;97.40;;;;;;5013000;28;19962;-76
2021/01/08 07:20:10;;;;;;;35.13;14.65;;;1.90;97.50;;;;;;5020885;28;20021;-78
2021/01/08 07:22:40;;;;;;;30.88;13.57;;;1.90;97.50;;;;;;5020774;28;20075;-76
2021/01/08 07:25:16;;;;;;;27.43;11.60;;;1.90;97.50;;;;;;5036254;28;20057;-78
2021/01/08 07:27:43;;;;;;;36.90;14.10;;;1.90;97.40;;;;;;5038436;28;20272;-76
2021/01/08 07:30:10;;;;;;;31.90;12.73;;;1.90;97.40;;;;;;5012610;28;20033;-76
2021/01/08 07:32:40;;;;;;;28.30;12.38;;;1.90;97.40;;;;;;5034807;28;20392;-77
2021/01/08 07:35:31;;;;;;;33.08;12.55;;;1.90;97.40;;;;;;5034665;28;20030;-76
2021/01/08 07:38:05;;;;;;;36.13;13.25;;;1.90;97.30;;;;;;5013454;28;20021;-78
2021/01/08 07:40:35;;;;;;;35.92;14.38;;;1.90;97.40;;;;;;5030883;28;20033;-77
2021/01/08 07:43:00;;;;;;;33.22;13.60;;;1.90;97.40;;;;;;5038213;28;20061;-76
2021/01/08 07:45:48;;;;;;;39.03;13.63;;;1.90;97.50;;;;;;5038311;28;20053;-77
2021/01/08 07:48:28;;;;;;;35.53;14.20;;;1.90;97.40;;;;;;5017449;28;20021;-75
2021/01/08 07:51:01;;;;;;;38.03;14.45;;;1.90;97.40;;;;;;5041223;28;20035;-75
2021/01/08 07:56:13;;;;;;;32.72;13.70;;;2.00;97.40;;;;;;5031176;28;20109;-75
2021/01/08 07:58:40;;;;;;;36.45;13.45;;;2.00;97.50;;;;;;5074945;22;20424;-76
2021/01/08 08:01:11;;;;;;;39.80;14.88;;;2.00;97.40;;;;;;5036287;28;20044;-77
2021/01/08 08:03:38;;;;;;;37.17;15.55;;;2.00;97.40;;;;;;5055883;28;20029;-77
2021/01/08 08:06:05;;;;;;;40.97;14.00;;;2.00;97.40;;;;;;5046889;28;20021;-76
2021/01/08 08:08:32;;;;;;;33.63;15.00;;;2.00;97.40;;;;;;5024137;28;20140;-75
2021/01/08 08:11:22;;;;;;;36.30;14.40;;;2.00;97.30;;;;;;5034200;28;20508;-74
2021/01/08 08:13:48;;;;;;;36.10;15.02;;;2.00;97.30;;;;;;5012750;28;20083;-75
2021/01/08 08:16:14;;;;;;;41.88;15.90;;;2.00;97.30;;;;;;5040617;28;20501;-75
2021/01/08 08:18:53;;;;;;;44.22;15.60;;;2.00;97.30;;;;;;5027473;28;20620;-75
2021/01/08 08:21:18;;;;;;;42.50;17.10;;;2.00;97.50;;;;;;5040526;28;20108;-75
2021/01/08 08:23:52;;;;;;;46.40;16.30;;;2.00;97.40;;;;;;5015097;28;20120;-77
2021/01/08 08:26:18;;;;;;;44.08;15.30;;;2.00;97.40;;;;;;5028161;28;20029;-76
2021/01/08 08:28:43;;;;;;;42.63;16.67;;;2.00;97.40;;;;;;5032416;28;20021;-75
2021/01/08 08:31:13;;;;;;;41.25;15.75;;;2.10;97.50;;;;;;5036479;28;20027;-76
2021/01/08 08:33:43;;;;;;;40.03;16.17;;;2.10;97.30;;;;;;5037969;28;20028;-76
2021/01/08 08:36:09;;;;;;;34.22;15.75;;;2.10;97.40;;;;;;5030144;28;20033;-76
2021/01/08 08:38:35;;;;;;;33.45;14.45;;;2.10;97.40;;;;;;5036989;28;20059;-75
2021/01/08 08:41:12;;;;;;;41.80;17.63;;;2.10;97.50;;;;;;5016071;28;20025;-75
2021/01/08 08:43:38;;;;;;;34.85;14.43;;;2.10;97.40;;;;;;5031759;28;20039;-75
2021/01/08 08:46:04;;;;;;;35.40;15.18;;;2.10;97.40;;;;;;5040770;28;20092;-74
2021/01/08 08:48:29;;;;;;;40.55;15.40;;;2.10;97.50;;;;;;5032039;28;20135;-75
2021/01/08 08:50:55;;;;;;;36.80;14.73;;;2.10;97.40;;;;;;5034939;28;20033;-74
2021/01/08 08:53:21;;;;;;;39.80;16.05;;;2.10;97.40;;;;;;5033306;28;20029;-75
2021/01/08 08:55:49;;;;;;;33.80;14.18;;;2.10;97.40;;;;;;5035582;28;20033;-75
2021/01/08 08:58:16;;;;;;;45.10;16.50;;;2.10;97.40;;;;;;5032472;28;20037;-75
2021/01/08 09:00:43;;;;;;;37.90;15.00;;;2.10;97.30;;;;;;5035917;28;20500;-75
2021/01/08 09:03:24;;;;;;;40.22;15.57;;;2.10;97.30;;;;;;5034956;28;20105;-74
2021/01/08 09:05:51;;;;;;;36.45;14.80;;;2.10;97.30;;;;;;5029574;28;20025;-74
2021/01/08 09:08:37;;;;;;;36.80;14.73;;;2.10;97.40;;;;;;5036082;28;20696;-74
2021/01/08 09:11:18;;;;;;;34.63;13.65;;;2.10;97.30;;;;;;5034455;28;20160;-73
2021/01/08 09:13:53;;;;;;;33.78;14.48;;;2.10;97.40;;;;;;5029761;28;20029;-73
2021/01/08 09:16:36;;;;;;;38.97;16.23;;;2.20;97.30;;;;;;5030519;28;20033;-75
2021/01/08 09:19:08;;;;;;;31.45;14.27;;;2.20;97.20;;;;;;5034377;28;20034;-74
2021/01/08 09:21:39;;;;;;;;;;;2.20;97.20;;;;;;5038552;28;20108;-74
2021/01/08 09:24:10;;;;;;;35.45;15.73;;;2.20;97.20;;;;;;5038676;28;20007;-75
2021/01/08 09:26:37;;;;;;;31.00;14.57;;;2.20;97.30;;;;;;5028709;28;20037;-74
2021/01/08 09:29:03;;;;;;;32.60;12.95;;;2.20;97.30;;;;;;5035005;28;20122;-73
2021/01/08 09:31:43;;;;;;;32.70;14.02;;;2.20;97.40;;;;;;5032002;28;20428;-74
2021/01/08 09:34:17;;;;;;;36.95;15.85;;;2.30;97.40;;;;;;5035558;28;20136;-75
2021/01/08 09:36:47;;;;;;;35.38;14.88;;;2.30;97.20;;;;;;5031215;28;20048;-74
2021/01/08 09:39:13;;;;;;;32.90;13.50;;;2.30;97.30;;;;;;5017502;28;20026;-74
2021/01/08 09:41:40;;;;;;;32.40;14.63;;;2.30;97.10;;;;;;5031925;28;20029;-75
2021/01/08 09:44:08;;;;;;;31.13;13.70;;;2.30;97.10;;;;;;5032143;28;20052;-74
2021/01/08 09:46:55;;;;;;;31.10;14.25;;;2.30;97.00;;;;;;5030406;28;20017;-75
2021/01/08 09:49:22;;;;;;;34.15;13.45;;;2.30;97.00;;;;;;5035735;28;20036;-75
2021/01/08 09:51:47;;;;;;;31.73;13.35;;;2.30;97.20;;;;;;5030606;28;20026;-74
2021/01/08 09:54:14;;;;;;;35.50;14.88;;;2.30;96.90;;;;;;5033706;28;20025;-75
2021/01/08 09:56:39;;;;;;;28.80;13.82;;;2.30;96.90;;;;;;5029934;28;20021;-75
2021/01/08 09:59:13;;;;;;;35.22;14.20;;;2.30;96.90;;;;;;5033842;28;20036;-75
2021/01/08 10:01:52;;;;;;;37.83;14.50;;;2.20;97.00;;;;;;5031391;28;20017;-75
2021/01/08 10:04:31;;;;;;;35.10;14.90;;;2.20;97.10;;;;;;5034110;28;20025;-74
2021/01/08 10:07:05;;;;;;;34.47;13.90;;;2.20;97.10;;;;;;5031325;28;20017;-74
2021/01/08 10:09:50;;;;;;;36.88;13.98;;;2.20;97.00;;;;;;5033620;28;20071;-75
2021/01/08 10:12:21;;;;;;;39.83;15.02;;;2.20;97.20;;;;;;5025105;28;20432;-75
2021/01/08 10:14:47;;;;;;;;;;;2.20;97.20;;;;;;5024909;28;20029;-75
2021/01/08 10:17:17;;;;;;;27.70;11.73;;;2.20;97.20;;;;;;5032437;28;19912;-75
2021/01/08 10:19:47;;;;;;;32.50;13.50;;;2.20;97.00;;;;;;5037051;28;20029;-74
2021/01/08 10:22:18;;;;;;;33.88;14.10;;;2.20;97.00;;;;;;5031801;28;20036;-74
2021/01/08 10:24:43;;;;;;;34.33;14.43;;;2.20;97.10;;;;;;5032390;28;20022;-74
2021/01/08 10:27:09;;;;;;;34.85;14.07;;;2.20;97.20;;;;;;5031515;28;20113;-74
2021/01/08 10:29:39;;;;;;;35.63;14.75;;;2.20;97.20;;;;;;5033823;28;20022;-73
2021/01/08 10:32:14;;;;;;;30.85;13.38;;;2.20;97.10;;;;;;5028227;28;20021;-74
2021/01/08 10:34:43;;;;;;;32.22;14.43;;;2.20;97.10;;;;;;5033649;28;20159;-74
2021/01/08 10:37:19;;;;;;;31.85;13.77;;;2.20;97.10;;;;;;5033295;28;20022;-75
2021/01/08 10:39:48;;;;;;;31.10;14.13;;;2.20;97.20;;;;;;5051004;28;20039;-73
2021/01/08 10:42:17;;;;;;;25.52;12.82;;;2.20;97.10;;;;;;5032626;28;20028;-75
2021/01/08 10:44:43;;;;;;;35.42;14.30;;;2.20;97.00;;;;;;5038049;28;20365;-75
2021/01/08 10:47:09;;;;;;;29.95;13.05;;;2.30;96.80;;;;;;5032654;28;20481;-75
2021/01/08 10:49:35;;;;;;;30.52;13.98;;;2.30;96.80;;;;;;5033467;28;20044;-74
2021/01/08 10:52:06;;;;;;;32.85;13.98;;;2.30;96.80;;;;;;5032480;28;20025;-74
2021/01/08 10:54:33;;;;;;;30.10;13.32;;;2.40;97.30;;;;;;5029986;28;20029;-74
2021/01/08 10:56:59;;;;;;;29.45;12.50;;;2.40;96.90;;;;;;5035369;28;20086;-75
2021/01/08 10:59:25;;;;;;;32.63;13.48;;;2.40;96.80;;;;;;5030112;28;20120;-74
2021/01/08 11:01:51;;;;;;;29.45;13.35;;;2.40;96.80;;;;;;5014601;28;20153;-75
2021/01/08 11:04:17;;;;;;;32.40;14.15;;;2.40;96.90;;;;;;5034895;28;20028;-74
2021/01/08 11:06:42;;;;;;;33.05;13.85;;;2.40;97.10;;;;;;5032372;28;20022;-75
2021/01/08 11:09:08;;;;;;;24.73;12.68;;;2.50;97.40;;;;;;5022133;28;20035;-76
2021/01/08 11:11:34;;;;;;;26.02;12.48;;;2.50;97.10;;;;;;5032723;28;20168;-76
2021/01/08 11:14:01;;;;;;;26.63;12.27;;;2.50;96.50;;;;;;5031464;28;20116;-76
2021/01/08 11:16:27;;;;;;;25.20;11.65;;;2.40;96.70;;;;;;5038733;28;20062;-74
2021/01/08 11:18:53;;;;;;;28.02;13.35;;;2.40;96.80;;;;;;5038057;28;20024;-74
2021/01/08 11:21:20;;;;;;;27.23;12.68;;;2.30;96.80;;;;;;5036341;28;20044;-74
2021/01/08 11:24:05;;;;;;;28.98;13.38;;;2.30;96.90;;;;;;5033519;28;20033;-74
2021/01/08 11:26:31;;;;;;;29.58;12.98;;;2.20;96.90;;;;;;5031359;28;20032;-75
2021/01/08 11:28:57;;;;;;;25.55;11.70;;;2.20;96.90;;;;;;5032455;28;20034;-74
2021/01/08 11:31:36;;;;;;;29.30;13.20;;;2.30;96.90;;;;;;5035171;28;20032;-73
2021/01/08 11:34:05;;;;;;;26.13;12.77;;;2.30;96.90;;;;;;5034520;28;20653;-73
2021/01/08 11:36:31;;;;;;;28.73;12.20;;;2.30;96.90;;;;;;5032251;28;20314;-73
2021/01/08 11:38:57;;;;;;;25.58;12.82;;;2.30;97.00;;;;;;5040165;28;20056;-74
2021/01/08 11:41:23;;;;;;;36.63;16.05;;;2.30;97.10;;;;;;5030875;28;20122;-73
2021/01/08 11:43:50;;;;;;;32.55;13.77;;;2.50;98.00;;;;;;5034219;28;20175;-73
2021/01/08 11:46:20;;;;;;;27.08;12.68;;;2.50;97.70;;;;;;5029832;28;20045;-73
2021/01/08 11:48:47;;;;;;;26.67;13.20;;;2.50;97.20;;;;;;5015115;28;20065;-74
2021/01/08 11:51:13;;;;;;;26.75;12.45;;;2.40;96.90;;;;;;5037833;28;20108;-74
2021/01/08 11:53:41;;;;;;;27.83;12.50;;;2.40;97.00;;;;;;5041044;28;20034;-74
2021/01/08 11:56:10;;;;;;;24.77;11.57;;;2.40;97.00;;;;;;5033890;28;20114;-77
2021/01/08 11:58:54;;;;;;;22.00;11.88;;;2.40;96.90;;;;;;5032394;28;20464;-77
2021/01/08 12:01:40;;;;;;;26.98;12.35;;;2.40;96.70;;;;;;5044291;28;20103;-74
2021/01/08 12:04:06;;;;;;;30.02;12.73;;;2.40;96.90;;;;;;5036167;28;20444;-76
2021/01/08 12:06:33;;;;;;;25.15;12.57;;;2.40;97.00;;;;;;5034928;28;20036;-81
2021/01/08 12:09:02;;;;;;;30.15;12.77;;;2.30;97.00;;;;;;5028536;28;20052;-77
2021/01/08 12:11:31;;;;;;;30.92;13.55;;;2.30;96.90;;;;;;5036345;28;20026;-76
2021/01/08 12:13:57;;;;;;;24.45;11.18;;;2.30;97.00;;;;;;5050993;28;20021;-76
2021/01/08 12:16:27;;;;;;;27.35;12.20;;;2.30;96.80;;;;;;5036879;28;20056;-76
2021/01/08 12:18:53;;;;;;;25.13;11.32;;;2.30;96.80;;;;;;5036231;28;20017;-77
2021/01/08 12:21:20;;;;;;;26.92;11.75;;;2.40;96.90;;;;;;5024637;28;20032;-76
2021/01/08 12:23:45;;;;;;;26.75;12.70;;;2.40;96.90;;;;;;5033575;28;20021;-76
2021/01/08 12:26:19;;;;;;;22.63;11.52;;;2.30;97.00;;;;;;5039673;28;20495;-77
2021/01/08 12:28:45;;;;;;;28.73;11.75;;;2.30;96.90;;;;;;5030356;28;20831;-76
2021/01/08 12:31:11;;;;;;;22.90;11.57;;;2.30;96.90;;;;;;5035773;28;20025;-76
2021/01/08 12:33:37;;;;;;;25.98;12.30;;;2.30;96.90;;;;;;5039926;28;20546;-75
2021/01/08 12:36:04;;;;;;;25.60;12.18;;;2.40;97.10;;;;;;5018283;28;20025;-76
2021/01/08 12:38:30;;;;;;;23.55;10.20;;;2.40;97.00;;;;;;5019790;28;20028;-77
2021/01/08 12:40:57;;;;;;;26.10;12.73;;;2.40;96.90;;;;;;5032099;28;20046;-78
2021/01/08 12:43:23;;;;;;;22.02;10.98;;;2.50;96.80;;;;;;5034999;28;20025;-76
2021/01/08 12:45:49;;;;;;;21.67;11.40;;;2.50;96.80;;;;;;5031030;28;20400;-75
2021/01/08 12:48:15;;;;;;;21.95;11.63;;;2.50;96.70;;;;;;5014087;28;20508;-76
2021/01/08 12:50:41;;;;;;;23.45;11.02;;;2.50;96.40;;;;;;5035412;28;20254;-77
2021/01/08 12:53:07;;;;;;;21.35;11.35;;;2.40;96.60;;;;;;5032848;28;20097;-76